EJA209 KORL-KBKL
Flight info
| Callsign | EJA209 |
|---|---|
| Flight time | N/A |
| Altitude | 39000 |
| Route | ROLLN ROLLN2 |
| Aircraft | CL60/M-SADE3FGHIJ3J4J7P2RWXY/HB1D1 |
Departure
| Time | N/A |
|---|---|
| Airport | Orlando Executive Airport (KORL) |
Arrival
| Time | 2026-05-05 02:08 |
|---|---|
| Airport | Burke Lakefront Airport (KBKL) |
| Time | Latitude | Longitude | Altitude | Speed | Heading |
|---|---|---|---|---|---|
| 2026-05-05 01:56 | 41.31049 | -81.57051 | 8163 ft | 306 kts | 19° |
| 2026-05-05 01:56 | 41.32966 | -81.55802 | 8020 ft | 304 kts | 19° |
| 2026-05-05 01:56 | 41.34691 | -81.54682 | 8015 ft | 305 kts | 19° |
| 2026-05-05 01:56 | 41.36935 | -81.53229 | 8014 ft | 306 kts | 19° |
| 2026-05-05 01:57 | 41.38703 | -81.52081 | 8018 ft | 297 kts | 19° |
| 2026-05-05 01:57 | 41.40492 | -81.50900 | 8034 ft | 278 kts | 19° |
| 2026-05-05 01:57 | 41.42171 | -81.49774 | 8035 ft | 262 kts | 19° |
| 2026-05-05 01:57 | 41.43760 | -81.48693 | 8035 ft | 249 kts | 19° |
| 2026-05-05 01:58 | 41.45308 | -81.47630 | 8026 ft | 249 kts | 19° |
| 2026-05-05 01:58 | 41.46841 | -81.46580 | 8014 ft | 249 kts | 19° |
| 2026-05-05 01:58 | 41.48666 | -81.45324 | 8015 ft | 250 kts | 19° |
| 2026-05-05 01:58 | 41.50208 | -81.44261 | 8014 ft | 250 kts | 19° |
| 2026-05-05 01:59 | 41.51756 | -81.43193 | 8010 ft | 250 kts | 19° |
| 2026-05-05 01:59 | 41.53282 | -81.42136 | 7936 ft | 244 kts | 19° |
| 2026-05-05 01:59 | 41.54793 | -81.41093 | 7623 ft | 246 kts | 19° |
| 2026-05-05 01:59 | 41.56319 | -81.40041 | 7295 ft | 248 kts | 19° |
| 2026-05-05 02:00 | 41.57858 | -81.38981 | 7007 ft | 247 kts | 19° |
| 2026-05-05 02:00 | 41.59382 | -81.37933 | 6731 ft | 246 kts | 19° |
| 2026-05-05 02:00 | 41.60957 | -81.37243 | 6439 ft | 229 kts | 351° |
| 2026-05-05 02:00 | 41.62383 | -81.37761 | 6094 ft | 204 kts | 313° |
| 2026-05-05 02:01 | 41.63260 | -81.39134 | 5799 ft | 192 kts | 295° |
| 2026-05-05 02:01 | 41.63802 | -81.40708 | 5483 ft | 184 kts | 274° |
| 2026-05-05 02:01 | 41.63797 | -81.42390 | 5082 ft | 186 kts | 258° |
| 2026-05-05 02:01 | 41.63324 | -81.43992 | 4575 ft | 183 kts | 242° |
| 2026-05-05 02:02 | 41.62649 | -81.45372 | 4293 ft | 172 kts | 238° |
| 2026-05-05 02:02 | 41.62002 | -81.46651 | 4051 ft | 161 kts | 238° |
| 2026-05-05 02:02 | 41.61410 | -81.47877 | 3836 ft | 155 kts | 239° |
| 2026-05-05 02:02 | 41.60839 | -81.49099 | 3632 ft | 155 kts | 239° |
| 2026-05-05 02:03 | 41.60274 | -81.50318 | 3429 ft | 152 kts | 239° |
| 2026-05-05 02:03 | 41.59738 | -81.51468 | 3241 ft | 136 kts | 239° |
| 2026-05-05 02:03 | 41.59266 | -81.52471 | 3078 ft | 121 kts | 238° |
| 2026-05-05 02:03 | 41.58830 | -81.53402 | 2914 ft | 116 kts | 239° |
| 2026-05-05 02:04 | 41.58409 | -81.54304 | 2799 ft | 112 kts | 238° |
| 2026-05-05 02:04 | 41.58007 | -81.55164 | 2643 ft | 107 kts | 237° |
| 2026-05-05 02:04 | 41.57619 | -81.55992 | 2493 ft | 105 kts | 237° |
| 2026-05-05 02:04 | 41.57227 | -81.56818 | 2370 ft | 107 kts | 237° |
| 2026-05-05 02:05 | 41.56822 | -81.57666 | 2273 ft | 105 kts | 237° |
| 2026-05-05 02:05 | 41.56444 | -81.58509 | 2156 ft | 106 kts | 239° |
| 2026-05-05 02:05 | 41.56094 | -81.59353 | 1972 ft | 106 kts | 239° |
| 2026-05-05 02:05 | 41.55710 | -81.60207 | 1775 ft | 107 kts | 236° |
| 2026-05-05 02:06 | 41.55283 | -81.61034 | 1674 ft | 103 kts | 232° |
| 2026-05-05 02:06 | 41.54862 | -81.61792 | 1512 ft | 104 kts | 231° |
| 2026-05-05 02:06 | 41.54443 | -81.62638 | 1391 ft | 113 kts | 235° |
| 2026-05-05 02:06 | 41.54054 | -81.63568 | 1304 ft | 114 kts | 239° |
| 2026-05-05 02:07 | 41.53684 | -81.64476 | 1157 ft | 108 kts | 234° |
| 2026-05-05 02:07 | 41.53256 | -81.65324 | 1014 ft | 111 kts | 231° |
| 2026-05-05 02:07 | 41.52837 | -81.66180 | 863 ft | 114 kts | 236° |
| 2026-05-05 02:07 | 41.52393 | -81.67135 | 702 ft | 125 kts | 234° |
| 2026-05-05 02:08 | 41.51957 | -81.68047 | 599 ft | 105 kts | 243° |
| 2026-05-05 02:08 | 41.51655 | -81.68689 | 592 ft | 38 kts | 237° |
| 2026-05-05 02:08 | 41.51557 | -81.68898 | 591 ft | 24 kts | 235° |
| 2026-05-05 02:08 | 41.51484 | -81.69057 | 590 ft | 14 kts | 237° |
| 2026-05-05 02:09 | 41.51435 | -81.69144 | 590 ft | 9 kts | 225° |
| 2026-05-05 02:09 | 41.51363 | -81.69146 | 590 ft | 12 kts | 153° |
| 2026-05-05 02:09 | 41.51301 | -81.69094 | 591 ft | 10 kts | 147° |
| 2026-05-05 02:09 | 41.51265 | -81.69063 | 591 ft | 6 kts | 139° |
| 2026-05-05 02:10 | 41.51276 | -81.69001 | 591 ft | 10 kts | 53° |
| 2026-05-05 02:10 | 41.51291 | -81.68942 | 591 ft | 8 kts | 105° |
| 2026-05-05 02:10 | 41.51246 | -81.68881 | 592 ft | 10 kts | 141° |
| 2026-05-05 02:10 | 41.51216 | -81.68844 | 592 ft | 6 kts | 102° |
| 2026-05-05 02:11 | 41.51234 | -81.68797 | 592 ft | 0 kts | 53° |